sensor_id;sensor_type;location;lat;lon;timestamp;temperature;humidity
12386;DHT22;6257;57.634;18.310;2022-08-03T00:01:06;17.30;99.90
12386;DHT22;6257;57.634;18.310;2022-08-03T00:03:33;17.30;99.90
12386;DHT22;6257;57.634;18.310;2022-08-03T00:06:01;17.30;99.90
12386;DHT22;6257;57.634;18.310;2022-08-03T00:08:28;17.20;99.90
12386;DHT22;6257;57.634;18.310;2022-08-03T00:10:55;17.20;99.90
12386;DHT22;6257;57.634;18.310;2022-08-03T00:13:24;17.20;99.90
12386;DHT22;6257;57.634;18.310;2022-08-03T00:15:51;17.10;99.90
12386;DHT22;6257;57.634;18.310;2022-08-03T00:18:19;17.10;99.90
12386;DHT22;6257;57.634;18.310;2022-08-03T00:20:46;17.10;99.90
12386;DHT22;6257;57.634;18.310;2022-08-03T00:23:13;17.10;99.90
12386;DHT22;6257;57.634;18.310;2022-08-03T00:25:40;17.00;99.90
12386;DHT22;6257;57.634;18.310;2022-08-03T00:28:08;17.00;99.90
12386;DHT22;6257;57.634;18.310;2022-08-03T00:30:36;17.00;99.90
12386;DHT22;6257;57.634;18.310;2022-08-03T00:33:04;17.00;99.90
12386;DHT22;6257;57.634;18.310;2022-08-03T00:35:31;17.00;99.90
12386;DHT22;6257;57.634;18.310;2022-08-03T00:37:58;17.00;99.90
12386;DHT22;6257;57.634;18.310;2022-08-03T00:40:25;16.90;99.90
12386;DHT22;6257;57.634;18.310;2022-08-03T00:42:54;16.90;99.90
12386;DHT22;6257;57.634;18.310;2022-08-03T00:45:24;16.90;99.90
12386;DHT22;6257;57.634;18.310;2022-08-03T00:47:53;16.90;99.90
12386;DHT22;6257;57.634;18.310;2022-08-03T00:50:22;16.90;99.90
12386;DHT22;6257;57.634;18.310;2022-08-03T00:52:51;16.90;99.90
12386;DHT22;6257;57.634;18.310;2022-08-03T00:55:18;16.90;99.90
12386;DHT22;6257;57.634;18.310;2022-08-03T00:57:46;17.00;99.90
12386;DHT22;6257;57.634;18.310;2022-08-03T01:00:15;17.00;99.90
12386;DHT22;6257;57.634;18.310;2022-08-03T01:02:43;17.00;99.90
12386;DHT22;6257;57.634;18.310;2022-08-03T01:05:12;17.00;99.90
12386;DHT22;6257;57.634;18.310;2022-08-03T01:07:58;17.00;99.90
12386;DHT22;6257;57.634;18.310;2022-08-03T01:10:32;16.90;99.90
12386;DHT22;6257;57.634;18.310;2022-08-03T01:13:11;17.00;99.90
12386;DHT22;6257;57.634;18.310;2022-08-03T01:15:48;17.00;99.90
12386;DHT22;6257;57.634;18.310;2022-08-03T01:18:24;17.00;99.90
12386;DHT22;6257;57.634;18.310;2022-08-03T01:20:56;17.00;99.90
12386;DHT22;6257;57.634;18.310;2022-08-03T01:23:36;17.00;99.90
12386;DHT22;6257;57.634;18.310;2022-08-03T01:26:17;17.00;99.90
12386;DHT22;6257;57.634;18.310;2022-08-03T01:28:58;17.00;99.90
12386;DHT22;6257;57.634;18.310;2022-08-03T01:31:37;17.00;99.90
12386;DHT22;6257;57.634;18.310;2022-08-03T01:34:08;17.00;99.90
12386;DHT22;6257;57.634;18.310;2022-08-03T01:36:39;17.00;99.90
12386;DHT22;6257;57.634;18.310;2022-08-03T01:39:09;17.00;99.90
12386;DHT22;6257;57.634;18.310;2022-08-03T01:41:41;16.90;99.90
12386;DHT22;6257;57.634;18.310;2022-08-03T01:44:11;16.90;99.90
12386;DHT22;6257;57.634;18.310;2022-08-03T01:46:41;16.90;99.90
12386;DHT22;6257;57.634;18.310;2022-08-03T01:49:10;17.00;99.90
12386;DHT22;6257;57.634;18.310;2022-08-03T01:51:41;16.90;99.90
12386;DHT22;6257;57.634;18.310;2022-08-03T01:54:10;16.90;99.90
12386;DHT22;6257;57.634;18.310;2022-08-03T01:56:38;17.00;99.90
12386;DHT22;6257;57.634;18.310;2022-08-03T01:59:06;17.00;99.90
12386;DHT22;6257;57.634;18.310;2022-08-03T02:01:35;17.00;99.90
12386;DHT22;6257;57.634;18.310;2022-08-03T02:04:05;16.90;99.90
12386;DHT22;6257;57.634;18.310;2022-08-03T02:06:35;16.90;99.90
12386;DHT22;6257;57.634;18.310;2022-08-03T02:09:05;16.90;99.90
12386;DHT22;6257;57.634;18.310;2022-08-03T02:11:33;17.00;99.90
12386;DHT22;6257;57.634;18.310;2022-08-03T02:14:03;16.90;99.90
12386;DHT22;6257;57.634;18.310;2022-08-03T02:16:32;16.90;99.90
12386;DHT22;6257;57.634;18.310;2022-08-03T02:19:02;16.90;99.90
12386;DHT22;6257;57.634;18.310;2022-08-03T02:21:35;16.90;99.90
12386;DHT22;6257;57.634;18.310;2022-08-03T02:24:03;16.90;99.90
12386;DHT22;6257;57.634;18.310;2022-08-03T02:26:30;16.90;99.90
12386;DHT22;6257;57.634;18.310;2022-08-03T02:29:01;16.90;99.90
12386;DHT22;6257;57.634;18.310;2022-08-03T02:31:31;17.00;99.90
12386;DHT22;6257;57.634;18.310;2022-08-03T02:34:03;16.90;99.90
12386;DHT22;6257;57.634;18.310;2022-08-03T02:36:36;16.90;99.90
12386;DHT22;6257;57.634;18.310;2022-08-03T02:39:05;16.90;99.90
12386;DHT22;6257;57.634;18.310;2022-08-03T02:41:37;16.90;99.90
12386;DHT22;6257;57.634;18.310;2022-08-03T02:44:08;16.90;99.90
12386;DHT22;6257;57.634;18.310;2022-08-03T02:46:38;16.90;99.90
12386;DHT22;6257;57.634;18.310;2022-08-03T02:49:07;16.90;99.90
12386;DHT22;6257;57.634;18.310;2022-08-03T02:51:38;17.00;99.90
12386;DHT22;6257;57.634;18.310;2022-08-03T02:54:06;17.00;99.90
12386;DHT22;6257;57.634;18.310;2022-08-03T02:56:36;17.00;99.90
12386;DHT22;6257;57.634;18.310;2022-08-03T02:59:05;17.00;99.90
12386;DHT22;6257;57.634;18.310;2022-08-03T03:01:33;17.00;99.90
12386;DHT22;6257;57.634;18.310;2022-08-03T03:04:00;17.00;99.90
12386;DHT22;6257;57.634;18.310;2022-08-03T03:06:29;17.00;99.90
12386;DHT22;6257;57.634;18.310;2022-08-03T03:08:59;17.00;99.90
12386;DHT22;6257;57.634;18.310;2022-08-03T03:11:28;17.00;99.90
12386;DHT22;6257;57.634;18.310;2022-08-03T03:13:56;17.00;99.90
12386;DHT22;6257;57.634;18.310;2022-08-03T03:16:25;16.90;99.90
12386;DHT22;6257;57.634;18.310;2022-08-03T03:18:54;16.90;99.90
12386;DHT22;6257;57.634;18.310;2022-08-03T03:21:22;17.00;99.90
12386;DHT22;6257;57.634;18.310;2022-08-03T03:23:50;17.00;99.90
12386;DHT22;6257;57.634;18.310;2022-08-03T03:26:20;16.90;99.90
12386;DHT22;6257;57.634;18.310;2022-08-03T03:28:47;16.90;99.90
12386;DHT22;6257;57.634;18.310;2022-08-03T03:31:14;16.90;99.90
12386;DHT22;6257;57.634;18.310;2022-08-03T03:33:42;16.90;99.90
12386;DHT22;6257;57.634;18.310;2022-08-03T03:36:10;16.90;99.90
12386;DHT22;6257;57.634;18.310;2022-08-03T03:38:37;17.00;99.90
12386;DHT22;6257;57.634;18.310;2022-08-03T03:41:04;17.00;99.90
12386;DHT22;6257;57.634;18.310;2022-08-03T03:43:33;17.10;99.90
12386;DHT22;6257;57.634;18.310;2022-08-03T03:46:00;17.20;99.90
12386;DHT22;6257;57.634;18.310;2022-08-03T03:48:28;17.30;99.90
12386;DHT22;6257;57.634;18.310;2022-08-03T03:50:55;17.30;99.90
12386;DHT22;6257;57.634;18.310;2022-08-03T03:53:23;17.40;99.90
12386;DHT22;6257;57.634;18.310;2022-08-03T03:55:51;17.50;99.90
12386;DHT22;6257;57.634;18.310;2022-08-03T03:58:19;17.50;99.90
12386;DHT22;6257;57.634;18.310;2022-08-03T04:00:48;17.60;99.90
12386;DHT22;6257;57.634;18.310;2022-08-03T04:03:15;17.60;99.90
12386;DHT22;6257;57.634;18.310;2022-08-03T04:05:43;17.70;99.90
12386;DHT22;6257;57.634;18.310;2022-08-03T04:08:27;17.70;99.90
12386;DHT22;6257;57.634;18.310;2022-08-03T04:11:15;17.80;99.90
12386;DHT22;6257;57.634;18.310;2022-08-03T04:13:49;17.80;99.90
12386;DHT22;6257;57.634;18.310;2022-08-03T04:16:21;17.90;99.90
12386;DHT22;6257;57.634;18.310;2022-08-03T04:18:52;18.10;99.90
12386;DHT22;6257;57.634;18.310;2022-08-03T04:21:22;18.10;99.90
12386;DHT22;6257;57.634;18.310;2022-08-03T04:23:52;18.20;99.90
12386;DHT22;6257;57.634;18.310;2022-08-03T04:26:21;18.20;99.90
12386;DHT22;6257;57.634;18.310;2022-08-03T04:28:48;18.20;99.90
12386;DHT22;6257;57.634;18.310;2022-08-03T04:31:21;18.20;99.90
12386;DHT22;6257;57.634;18.310;2022-08-03T04:33:51;18.10;99.90
12386;DHT22;6257;57.634;18.310;2022-08-03T04:36:21;18.10;99.90
12386;DHT22;6257;57.634;18.310;2022-08-03T04:38:55;18.10;99.90
12386;DHT22;6257;57.634;18.310;2022-08-03T04:41:26;18.20;99.90
12386;DHT22;6257;57.634;18.310;2022-08-03T04:43:55;18.20;99.90
12386;DHT22;6257;57.634;18.310;2022-08-03T04:46:26;18.20;99.90
12386;DHT22;6257;57.634;18.310;2022-08-03T04:48:54;18.20;99.90
12386;DHT22;6257;57.634;18.310;2022-08-03T04:51:22;18.30;99.90
12386;DHT22;6257;57.634;18.310;2022-08-03T04:53:49;18.30;99.90
12386;DHT22;6257;57.634;18.310;2022-08-03T04:56:16;18.40;99.90
12386;DHT22;6257;57.634;18.310;2022-08-03T04:58:44;18.40;99.90
12386;DHT22;6257;57.634;18.310;2022-08-03T05:01:11;18.50;99.90
12386;DHT22;6257;57.634;18.310;2022-08-03T05:03:39;18.50;99.90
12386;DHT22;6257;57.634;18.310;2022-08-03T05:06:07;18.40;99.90
12386;DHT22;6257;57.634;18.310;2022-08-03T05:08:34;18.40;99.90
12386;DHT22;6257;57.634;18.310;2022-08-03T05:11:01;18.50;99.90
12386;DHT22;6257;57.634;18.310;2022-08-03T05:13:28;18.50;99.90
12386;DHT22;6257;57.634;18.310;2022-08-03T05:15:55;18.60;99.90
12386;DHT22;6257;57.634;18.310;2022-08-03T05:18:22;18.80;99.90
12386;DHT22;6257;57.634;18.310;2022-08-03T05:20:51;18.90;99.90
12386;DHT22;6257;57.634;18.310;2022-08-03T05:23:18;19.00;99.90
12386;DHT22;6257;57.634;18.310;2022-08-03T05:25:45;19.10;99.90
12386;DHT22;6257;57.634;18.310;2022-08-03T05:28:12;19.10;99.90
12386;DHT22;6257;57.634;18.310;2022-08-03T05:30:39;19.10;99.90
12386;DHT22;6257;57.634;18.310;2022-08-03T05:33:06;19.10;99.90
12386;DHT22;6257;57.634;18.310;2022-08-03T05:35:34;19.00;99.90
12386;DHT22;6257;57.634;18.310;2022-08-03T05:38:02;19.00;99.90
12386;DHT22;6257;57.634;18.310;2022-08-03T05:40:30;19.10;99.90
12386;DHT22;6257;57.634;18.310;2022-08-03T05:42:57;19.10;99.90
12386;DHT22;6257;57.634;18.310;2022-08-03T05:45:24;19.10;99.90
12386;DHT22;6257;57.634;18.310;2022-08-03T05:47:51;19.10;99.90
12386;DHT22;6257;57.634;18.310;2022-08-03T05:50:19;19.10;99.90
12386;DHT22;6257;57.634;18.310;2022-08-03T05:52:46;19.10;99.90
12386;DHT22;6257;57.634;18.310;2022-08-03T05:55:15;19.10;99.90
12386;DHT22;6257;57.634;18.310;2022-08-03T05:57:42;19.00;99.90
12386;DHT22;6257;57.634;18.310;2022-08-03T06:00:12;19.10;99.90
12386;DHT22;6257;57.634;18.310;2022-08-03T06:02:39;19.20;99.90
12386;DHT22;6257;57.634;18.310;2022-08-03T06:05:07;19.30;99.90
12386;DHT22;6257;57.634;18.310;2022-08-03T06:07:35;19.40;99.90
12386;DHT22;6257;57.634;18.310;2022-08-03T06:10:03;19.50;99.90
12386;DHT22;6257;57.634;18.310;2022-08-03T06:12:32;19.50;99.90
12386;DHT22;6257;57.634;18.310;2022-08-03T06:15:01;19.60;99.90
12386;DHT22;6257;57.634;18.310;2022-08-03T06:17:29;19.60;99.90
12386;DHT22;6257;57.634;18.310;2022-08-03T06:19:56;19.60;99.90
12386;DHT22;6257;57.634;18.310;2022-08-03T06:22:23;19.60;99.90
12386;DHT22;6257;57.634;18.310;2022-08-03T06:24:50;19.70;99.90
12386;DHT22;6257;57.634;18.310;2022-08-03T06:27:17;19.80;99.90
12386;DHT22;6257;57.634;18.310;2022-08-03T06:29:46;19.70;99.90
12386;DHT22;6257;57.634;18.310;2022-08-03T06:32:13;19.60;99.90
12386;DHT22;6257;57.634;18.310;2022-08-03T06:34:41;19.50;99.90
12386;DHT22;6257;57.634;18.310;2022-08-03T06:37:08;19.40;99.90
12386;DHT22;6257;57.634;18.310;2022-08-03T06:39:36;19.20;99.90
12386;DHT22;6257;57.634;18.310;2022-08-03T06:42:03;19.30;99.90
12386;DHT22;6257;57.634;18.310;2022-08-03T06:44:31;19.30;99.90
12386;DHT22;6257;57.634;18.310;2022-08-03T06:46:59;19.50;99.90
12386;DHT22;6257;57.634;18.310;2022-08-03T06:49:26;19.50;99.90
12386;DHT22;6257;57.634;18.310;2022-08-03T06:51:53;19.70;99.90
12386;DHT22;6257;57.634;18.310;2022-08-03T06:54:21;19.80;99.90
12386;DHT22;6257;57.634;18.310;2022-08-03T06:56:49;20.00;99.90
12386;DHT22;6257;57.634;18.310;2022-08-03T06:59:16;20.10;99.90
12386;DHT22;6257;57.634;18.310;2022-08-03T07:01:43;20.00;99.90
12386;DHT22;6257;57.634;18.310;2022-08-03T07:04:11;19.90;99.90
12386;DHT22;6257;57.634;18.310;2022-08-03T07:06:38;19.90;99.90
12386;DHT22;6257;57.634;18.310;2022-08-03T07:09:05;19.90;99.90
12386;DHT22;6257;57.634;18.310;2022-08-03T07:11:33;19.90;99.90
12386;DHT22;6257;57.634;18.310;2022-08-03T07:14:00;20.00;99.90
12386;DHT22;6257;57.634;18.310;2022-08-03T07:16:27;20.20;99.90
12386;DHT22;6257;57.634;18.310;2022-08-03T07:18:54;20.20;99.90
12386;DHT22;6257;57.634;18.310;2022-08-03T07:21:22;20.20;99.90
12386;DHT22;6257;57.634;18.310;2022-08-03T07:23:49;20.10;99.90
12386;DHT22;6257;57.634;18.310;2022-08-03T07:26:16;20.20;99.90
12386;DHT22;6257;57.634;18.310;2022-08-03T07:28:43;20.20;99.90
12386;DHT22;6257;57.634;18.310;2022-08-03T07:31:11;20.30;99.90
12386;DHT22;6257;57.634;18.310;2022-08-03T07:33:38;20.40;99.90
12386;DHT22;6257;57.634;18.310;2022-08-03T07:36:05;20.50;99.90
12386;DHT22;6257;57.634;18.310;2022-08-03T07:38:34;20.60;99.90
12386;DHT22;6257;57.634;18.310;2022-08-03T07:41:01;20.60;99.90
12386;DHT22;6257;57.634;18.310;2022-08-03T07:43:28;20.70;99.90
12386;DHT22;6257;57.634;18.310;2022-08-03T07:45:58;20.90;99.90
12386;DHT22;6257;57.634;18.310;2022-08-03T07:48:25;21.10;99.90
12386;DHT22;6257;57.634;18.310;2022-08-03T07:50:52;21.20;99.90
12386;DHT22;6257;57.634;18.310;2022-08-03T07:53:19;21.20;99.90
12386;DHT22;6257;57.634;18.310;2022-08-03T07:55:47;21.20;99.90
12386;DHT22;6257;57.634;18.310;2022-08-03T07:58:14;21.30;99.90
12386;DHT22;6257;57.634;18.310;2022-08-03T08:00:43;21.40;99.90
12386;DHT22;6257;57.634;18.310;2022-08-03T08:03:10;21.60;99.90
12386;DHT22;6257;57.634;18.310;2022-08-03T08:05:39;22.00;99.90
12386;DHT22;6257;57.634;18.310;2022-08-03T08:08:06;22.10;99.90
12386;DHT22;6257;57.634;18.310;2022-08-03T08:10:33;22.20;99.90
12386;DHT22;6257;57.634;18.310;2022-08-03T08:13:02;22.50;99.90
12386;DHT22;6257;57.634;18.310;2022-08-03T08:15:30;22.90;99.90
12386;DHT22;6257;57.634;18.310;2022-08-03T08:18:00;23.10;99.90
12386;DHT22;6257;57.634;18.310;2022-08-03T08:20:28;23.30;99.90
12386;DHT22;6257;57.634;18.310;2022-08-03T08:22:56;23.20;99.90
12386;DHT22;6257;57.634;18.310;2022-08-03T08:25:24;23.20;99.90
12386;DHT22;6257;57.634;18.310;2022-08-03T08:27:52;23.30;99.90
12386;DHT22;6257;57.634;18.310;2022-08-03T08:30:22;23.40;99.90
12386;DHT22;6257;57.634;18.310;2022-08-03T08:32:49;24.00;99.90
12386;DHT22;6257;57.634;18.310;2022-08-03T08:35:18;24.50;99.90
12386;DHT22;6257;57.634;18.310;2022-08-03T08:37:45;24.30;99.90
12386;DHT22;6257;57.634;18.310;2022-08-03T08:40:12;24.50;99.90
12386;DHT22;6257;57.634;18.310;2022-08-03T08:42:41;25.20;99.90
12386;DHT22;6257;57.634;18.310;2022-08-03T08:45:09;26.10;99.90
12386;DHT22;6257;57.634;18.310;2022-08-03T08:47:39;26.50;99.90
12386;DHT22;6257;57.634;18.310;2022-08-03T08:50:07;27.40;99.90
12386;DHT22;6257;57.634;18.310;2022-08-03T08:52:36;28.00;99.90
12386;DHT22;6257;57.634;18.310;2022-08-03T08:55:07;28.70;99.90
12386;DHT22;6257;57.634;18.310;2022-08-03T08:57:35;28.00;99.90
12386;DHT22;6257;57.634;18.310;2022-08-03T09:00:05;27.20;99.90
12386;DHT22;6257;57.634;18.310;2022-08-03T09:02:34;27.20;99.90
12386;DHT22;6257;57.634;18.310;2022-08-03T09:05:03;26.60;99.90
12386;DHT22;6257;57.634;18.310;2022-08-03T09:07:30;25.70;99.90
12386;DHT22;6257;57.634;18.310;2022-08-03T09:09:57;25.10;99.90
12386;DHT22;6257;57.634;18.310;2022-08-03T09:12:24;24.70;99.90
12386;DHT22;6257;57.634;18.310;2022-08-03T09:14:51;24.20;99.90
12386;DHT22;6257;57.634;18.310;2022-08-03T09:17:19;23.90;99.90
12386;DHT22;6257;57.634;18.310;2022-08-03T09:20:05;23.80;99.90
12386;DHT22;6257;57.634;18.310;2022-08-03T09:22:34;23.70;99.90
12386;DHT22;6257;57.634;18.310;2022-08-03T09:25:03;23.90;99.90
12386;DHT22;6257;57.634;18.310;2022-08-03T09:27:41;24.10;99.90
12386;DHT22;6257;57.634;18.310;2022-08-03T09:30:13;23.90;99.90
12386;DHT22;6257;57.634;18.310;2022-08-03T09:32:41;23.50;99.90
12386;DHT22;6257;57.634;18.310;2022-08-03T09:35:11;23.10;99.90
12386;DHT22;6257;57.634;18.310;2022-08-03T09:37:39;23.20;99.90
12386;DHT22;6257;57.634;18.310;2022-08-03T09:40:07;23.50;99.90
12386;DHT22;6257;57.634;18.310;2022-08-03T09:42:34;23.90;99.90
12386;DHT22;6257;57.634;18.310;2022-08-03T09:45:04;23.90;99.90
12386;DHT22;6257;57.634;18.310;2022-08-03T09:47:32;23.70;99.90
12386;DHT22;6257;57.634;18.310;2022-08-03T09:50:03;23.50;99.90
12386;DHT22;6257;57.634;18.310;2022-08-03T09:52:33;23.50;99.90
12386;DHT22;6257;57.634;18.310;2022-08-03T09:55:01;23.60;99.90
12386;DHT22;6257;57.634;18.310;2022-08-03T09:57:28;23.60;99.90
12386;DHT22;6257;57.634;18.310;2022-08-03T10:00:06;23.70;99.90
12386;DHT22;6257;57.634;18.310;2022-08-03T10:02:35;23.60;99.90
12386;DHT22;6257;57.634;18.310;2022-08-03T10:05:03;23.80;99.90
12386;DHT22;6257;57.634;18.310;2022-08-03T10:07:41;24.10;99.90
12386;DHT22;6257;57.634;18.310;2022-08-03T10:10:08;24.20;99.90
12386;DHT22;6257;57.634;18.310;2022-08-03T10:12:36;24.00;99.90
12386;DHT22;6257;57.634;18.310;2022-08-03T10:15:04;24.00;99.90
12386;DHT22;6257;57.634;18.310;2022-08-03T10:17:31;23.90;99.90
12386;DHT22;6257;57.634;18.310;2022-08-03T10:19:58;23.80;99.90
12386;DHT22;6257;57.634;18.310;2022-08-03T10:22:27;23.50;99.90
12386;DHT22;6257;57.634;18.310;2022-08-03T10:24:59;23.50;99.90
12386;DHT22;6257;57.634;18.310;2022-08-03T10:27:32;23.50;99.90
12386;DHT22;6257;57.634;18.310;2022-08-03T10:30:01;23.50;99.90
12386;DHT22;6257;57.634;18.310;2022-08-03T10:32:33;23.60;99.90
12386;DHT22;6257;57.634;18.310;2022-08-03T10:35:04;23.60;99.90
12386;DHT22;6257;57.634;18.310;2022-08-03T10:37:33;23.60;99.90
12386;DHT22;6257;57.634;18.310;2022-08-03T10:40:06;23.60;99.90
12386;DHT22;6257;57.634;18.310;2022-08-03T10:42:34;23.70;99.90
12386;DHT22;6257;57.634;18.310;2022-08-03T10:45:05;23.50;99.90
12386;DHT22;6257;57.634;18.310;2022-08-03T10:47:33;23.20;99.90
12386;DHT22;6257;57.634;18.310;2022-08-03T10:50:01;23.20;99.90
12386;DHT22;6257;57.634;18.310;2022-08-03T10:52:28;23.30;99.90
12386;DHT22;6257;57.634;18.310;2022-08-03T10:54:55;23.60;99.90
12386;DHT22;6257;57.634;18.310;2022-08-03T10:57:52;23.70;99.90
12386;DHT22;6257;57.634;18.310;2022-08-03T11:00:20;23.80;99.90
12386;DHT22;6257;57.634;18.310;2022-08-03T11:03:07;23.90;99.90
12386;DHT22;6257;57.634;18.310;2022-08-03T11:05:40;24.00;99.90
12386;DHT22;6257;57.634;18.310;2022-08-03T11:08:30;24.10;99.90
12386;DHT22;6257;57.634;18.310;2022-08-03T11:11:01;24.00;99.90
12386;DHT22;6257;57.634;18.310;2022-08-03T11:13:31;23.80;99.90
12386;DHT22;6257;57.634;18.310;2022-08-03T11:16:02;23.60;99.90
12386;DHT22;6257;57.634;18.310;2022-08-03T11:18:30;23.60;99.90
12386;DHT22;6257;57.634;18.310;2022-08-03T11:20:58;23.60;99.90
12386;DHT22;6257;57.634;18.310;2022-08-03T11:23:43;23.80;99.90
12386;DHT22;6257;57.634;18.310;2022-08-03T11:26:14;23.80;99.90
12386;DHT22;6257;57.634;18.310;2022-08-03T11:28:44;23.70;99.90
12386;DHT22;6257;57.634;18.310;2022-08-03T11:34:21;23.80;99.90
12386;DHT22;6257;57.634;18.310;2022-08-03T11:37:17;23.90;99.90
12386;DHT22;6257;57.634;18.310;2022-08-03T11:39:47;23.90;99.90
12386;DHT22;6257;57.634;18.310;2022-08-03T11:42:43;24.00;99.90
12386;DHT22;6257;57.634;18.310;2022-08-03T11:45:13;23.90;99.90
12386;DHT22;6257;57.634;18.310;2022-08-03T11:47:41;23.80;99.90
12386;DHT22;6257;57.634;18.310;2022-08-03T11:50:09;23.80;99.90
12386;DHT22;6257;57.634;18.310;2022-08-03T11:52:39;23.90;99.90
12386;DHT22;6257;57.634;18.310;2022-08-03T11:55:12;24.00;99.90
12386;DHT22;6257;57.634;18.310;2022-08-03T11:57:40;24.20;99.90
12386;DHT22;6257;57.634;18.310;2022-08-03T12:00:26;24.20;99.90
12386;DHT22;6257;57.634;18.310;2022-08-03T12:02:59;24.10;99.90
12386;DHT22;6257;57.634;18.310;2022-08-03T12:05:38;24.00;99.90
12386;DHT22;6257;57.634;18.310;2022-08-03T12:08:06;23.90;99.90
12386;DHT22;6257;57.634;18.310;2022-08-03T12:10:34;23.90;99.90
12386;DHT22;6257;57.634;18.310;2022-08-03T12:13:02;23.90;99.90
12386;DHT22;6257;57.634;18.310;2022-08-03T12:15:35;23.80;99.90
12386;DHT22;6257;57.634;18.310;2022-08-03T12:18:12;23.80;99.90
12386;DHT22;6257;57.634;18.310;2022-08-03T12:20:39;23.90;99.90
12386;DHT22;6257;57.634;18.310;2022-08-03T12:23:07;24.00;99.90
12386;DHT22;6257;57.634;18.310;2022-08-03T12:25:37;24.00;99.90
12386;DHT22;6257;57.634;18.310;2022-08-03T12:28:13;24.00;99.90
12386;DHT22;6257;57.634;18.310;2022-08-03T12:30:47;24.00;99.90
12386;DHT22;6257;57.634;18.310;2022-08-03T12:33:16;24.00;99.90
12386;DHT22;6257;57.634;18.310;2022-08-03T12:35:45;24.10;99.90
12386;DHT22;6257;57.634;18.310;2022-08-03T12:38:12;24.10;99.90
12386;DHT22;6257;57.634;18.310;2022-08-03T12:40:40;24.20;99.90
12386;DHT22;6257;57.634;18.310;2022-08-03T12:43:11;24.30;99.90
12386;DHT22;6257;57.634;18.310;2022-08-03T12:45:38;24.30;99.90
12386;DHT22;6257;57.634;18.310;2022-08-03T12:48:09;24.30;99.90
12386;DHT22;6257;57.634;18.310;2022-08-03T12:50:49;24.30;99.90
12386;DHT22;6257;57.634;18.310;2022-08-03T12:53:27;24.40;99.90
12386;DHT22;6257;57.634;18.310;2022-08-03T12:56:00;24.50;99.90
12386;DHT22;6257;57.634;18.310;2022-08-03T12:58:29;24.50;99.90
12386;DHT22;6257;57.634;18.310;2022-08-03T13:00:58;24.50;99.90
12386;DHT22;6257;57.634;18.310;2022-08-03T13:03:26;24.50;99.90
12386;DHT22;6257;57.634;18.310;2022-08-03T13:05:53;24.50;99.90
12386;DHT22;6257;57.634;18.310;2022-08-03T13:08:23;24.40;99.90
12386;DHT22;6257;57.634;18.310;2022-08-03T13:10:51;24.40;99.90
12386;DHT22;6257;57.634;18.310;2022-08-03T13:13:18;24.30;99.90
12386;DHT22;6257;57.634;18.310;2022-08-03T13:16:03;24.10;99.90
12386;DHT22;6257;57.634;18.310;2022-08-03T13:18:32;24.10;99.90
12386;DHT22;6257;57.634;18.310;2022-08-03T13:20:59;24.20;99.90
12386;DHT22;6257;57.634;18.310;2022-08-03T13:23:26;24.20;99.90
12386;DHT22;6257;57.634;18.310;2022-08-03T13:25:53;24.30;99.90
12386;DHT22;6257;57.634;18.310;2022-08-03T13:28:20;24.40;99.90
12386;DHT22;6257;57.634;18.310;2022-08-03T13:30:47;24.20;99.90
12386;DHT22;6257;57.634;18.310;2022-08-03T13:33:14;24.20;99.90
12386;DHT22;6257;57.634;18.310;2022-08-03T13:35:42;24.20;99.90
12386;DHT22;6257;57.634;18.310;2022-08-03T13:38:09;24.20;99.90
12386;DHT22;6257;57.634;18.310;2022-08-03T13:40:36;24.20;99.90
12386;DHT22;6257;57.634;18.310;2022-08-03T13:43:03;24.20;99.90
12386;DHT22;6257;57.634;18.310;2022-08-03T13:45:30;24.20;99.90
12386;DHT22;6257;57.634;18.310;2022-08-03T13:47:58;24.30;99.90
12386;DHT22;6257;57.634;18.310;2022-08-03T13:50:25;24.30;99.90
12386;DHT22;6257;57.634;18.310;2022-08-03T13:52:53;24.40;99.90
12386;DHT22;6257;57.634;18.310;2022-08-03T13:55:20;24.50;99.90
12386;DHT22;6257;57.634;18.310;2022-08-03T13:57:47;24.40;99.90
12386;DHT22;6257;57.634;18.310;2022-08-03T14:00:15;24.20;99.90
12386;DHT22;6257;57.634;18.310;2022-08-03T14:02:42;24.00;99.90
12386;DHT22;6257;57.634;18.310;2022-08-03T14:05:09;24.10;99.90
12386;DHT22;6257;57.634;18.310;2022-08-03T14:07:36;24.10;99.90
12386;DHT22;6257;57.634;18.310;2022-08-03T14:10:06;24.10;99.90
12386;DHT22;6257;57.634;18.310;2022-08-03T14:12:34;24.10;99.90
12386;DHT22;6257;57.634;18.310;2022-08-03T14:15:01;24.10;99.90
12386;DHT22;6257;57.634;18.310;2022-08-03T14:17:28;24.10;99.90
12386;DHT22;6257;57.634;18.310;2022-08-03T14:19:55;24.10;99.90
12386;DHT22;6257;57.634;18.310;2022-08-03T14:22:22;24.20;99.90
12386;DHT22;6257;57.634;18.310;2022-08-03T14:24:49;24.20;99.90
12386;DHT22;6257;57.634;18.310;2022-08-03T14:27:17;24.20;99.90
12386;DHT22;6257;57.634;18.310;2022-08-03T14:29:44;24.20;99.90
12386;DHT22;6257;57.634;18.310;2022-08-03T14:32:11;24.20;99.90
12386;DHT22;6257;57.634;18.310;2022-08-03T14:34:38;24.20;99.90
12386;DHT22;6257;57.634;18.310;2022-08-03T14:37:05;24.20;99.90
12386;DHT22;6257;57.634;18.310;2022-08-03T14:39:32;24.20;99.90
12386;DHT22;6257;57.634;18.310;2022-08-03T14:41:59;24.20;99.90
12386;DHT22;6257;57.634;18.310;2022-08-03T14:44:28;24.20;99.90
12386;DHT22;6257;57.634;18.310;2022-08-03T14:46:55;24.20;99.90
12386;DHT22;6257;57.634;18.310;2022-08-03T14:49:22;24.20;99.90
12386;DHT22;6257;57.634;18.310;2022-08-03T14:51:48;24.20;99.90
12386;DHT22;6257;57.634;18.310;2022-08-03T14:54:15;24.10;99.90
12386;DHT22;6257;57.634;18.310;2022-08-03T14:56:42;24.20;99.90
12386;DHT22;6257;57.634;18.310;2022-08-03T14:59:09;24.20;99.90
12386;DHT22;6257;57.634;18.310;2022-08-03T15:01:38;24.20;99.90
12386;DHT22;6257;57.634;18.310;2022-08-03T15:04:05;24.20;99.90
12386;DHT22;6257;57.634;18.310;2022-08-03T15:06:32;24.30;99.90
12386;DHT22;6257;57.634;18.310;2022-08-03T15:08:59;24.30;99.90
12386;DHT22;6257;57.634;18.310;2022-08-03T15:11:26;24.30;99.90
12386;DHT22;6257;57.634;18.310;2022-08-03T15:13:53;24.30;99.90
12386;DHT22;6257;57.634;18.310;2022-08-03T15:16:20;24.20;99.90
12386;DHT22;6257;57.634;18.310;2022-08-03T15:18:48;24.20;99.90
12386;DHT22;6257;57.634;18.310;2022-08-03T15:21:15;24.20;99.90
12386;DHT22;6257;57.634;18.310;2022-08-03T15:23:42;24.20;99.90
12386;DHT22;6257;57.634;18.310;2022-08-03T15:26:09;24.00;99.90
12386;DHT22;6257;57.634;18.310;2022-08-03T15:28:36;24.00;99.90
12386;DHT22;6257;57.634;18.310;2022-08-03T15:31:04;23.90;99.90
12386;DHT22;6257;57.634;18.310;2022-08-03T15:33:31;23.90;99.90
12386;DHT22;6257;57.634;18.310;2022-08-03T15:36:00;23.80;99.90
12386;DHT22;6257;57.634;18.310;2022-08-03T15:38:27;23.80;99.90
12386;DHT22;6257;57.634;18.310;2022-08-03T15:40:54;23.80;99.90
12386;DHT22;6257;57.634;18.310;2022-08-03T15:43:22;23.80;99.90
12386;DHT22;6257;57.634;18.310;2022-08-03T15:45:49;23.80;99.90